createdAt,value
2023-02-03T00:00:55.258Z,90.40
2023-02-03T00:03:23.607Z,90.90
2023-02-03T00:05:52.043Z,90.10
2023-02-03T00:08:21.155Z,91.10
2023-02-03T00:10:49.503Z,90.70
2023-02-03T00:13:17.599Z,91.40
2023-02-03T00:15:47.399Z,91.80
2023-02-03T00:18:15.491Z,92.90
2023-02-03T00:20:43.622Z,93.00
2023-02-03T00:23:12.827Z,93.60
2023-02-03T00:25:41.850Z,93.90
2023-02-03T00:28:10.181Z,94.00
2023-02-03T00:30:39.147Z,94.00
2023-02-03T00:33:08.639Z,94.60
2023-02-03T00:35:40.017Z,94.60
2023-02-03T00:38:08.159Z,94.60
2023-02-03T00:40:36.230Z,94.60
2023-02-03T00:43:04.339Z,95.30
2023-02-03T00:45:32.475Z,95.50
2023-02-03T00:48:00.694Z,95.40
2023-02-03T00:50:30.164Z,95.80
2023-02-03T00:52:58.324Z,95.50
2023-02-03T00:55:26.439Z,95.40
2023-02-03T00:57:54.551Z,95.30
2023-02-03T01:00:22.961Z,95.30
2023-02-03T01:02:51.185Z,95.00
2023-02-03T01:05:19.418Z,95.30
2023-02-03T01:07:48.915Z,94.60
2023-02-03T01:10:17.439Z,95.00
2023-02-03T01:12:45.591Z,95.30
2023-02-03T01:15:13.734Z,95.20
2023-02-03T01:17:41.871Z,95.80
2023-02-03T01:20:12.321Z,95.10
2023-02-03T01:22:40.759Z,94.80
2023-02-03T01:25:10.642Z,95.30
2023-02-03T01:27:38.835Z,94.80
2023-02-03T01:30:07.414Z,95.10
2023-02-03T01:32:35.547Z,94.00
2023-02-03T01:35:03.698Z,94.20
2023-02-03T01:37:31.821Z,94.20
2023-02-03T01:40:00.029Z,93.60
2023-02-03T01:42:33.368Z,93.50
2023-02-03T01:45:01.735Z,94.10
2023-02-03T01:47:34.426Z,93.70
2023-02-03T01:50:12.455Z,94.00
2023-02-03T01:52:43.046Z,93.50
2023-02-03T01:55:14.978Z,93.60
2023-02-03T01:57:47.268Z,93.80
2023-02-03T02:00:16.001Z,93.50
2023-02-03T02:02:47.672Z,93.70
2023-02-03T02:05:21.441Z,93.90
2023-02-03T02:07:50.262Z,93.70
2023-02-03T02:10:18.807Z,93.90
2023-02-03T02:12:48.972Z,93.30
2023-02-03T02:15:18.160Z,92.80
2023-02-03T02:18:09.251Z,93.30
2023-02-03T02:21:06.098Z,93.70
2023-02-03T02:23:57.828Z,91.70
2023-02-03T02:26:46.709Z,93.10
2023-02-03T02:29:46.585Z,92.80
2023-02-03T02:32:29.696Z,90.50
2023-02-03T02:35:05.807Z,92.60
2023-02-03T02:37:45.428Z,92.30
2023-02-03T02:40:23.931Z,91.40
2023-02-03T02:43:04.188Z,90.80
2023-02-03T02:45:42.491Z,89.60
2023-02-03T02:48:17.878Z,92.00
2023-02-03T02:50:49.526Z,91.70
2023-02-03T02:53:20.168Z,91.60
2023-02-03T02:55:48.962Z,91.90
2023-02-03T02:58:20.189Z,92.40
2023-02-03T03:00:48.675Z,91.90
2023-02-03T03:03:20.442Z,91.70
2023-02-03T03:05:53.115Z,91.40
2023-02-03T03:08:25.252Z,91.80
2023-02-03T03:10:54.899Z,91.30
2023-02-03T03:13:26.690Z,90.20
2023-02-03T03:15:58.013Z,90.30
2023-02-03T03:18:32.014Z,90.70
2023-02-03T03:21:06.160Z,91.10
2023-02-03T03:23:39.642Z,90.70
2023-02-03T03:26:13.621Z,91.10
2023-02-03T03:28:49.029Z,91.00
2023-02-03T03:31:18.376Z,90.30
2023-02-03T03:33:48.927Z,90.20
2023-02-03T03:36:25.010Z,90.50
2023-02-03T03:38:58.264Z,90.60
2023-02-03T03:41:33.286Z,90.20
2023-02-03T03:44:05.742Z,89.50
2023-02-03T03:46:42.013Z,90.30
2023-02-03T03:49:13.529Z,90.40
2023-02-03T03:51:46.031Z,89.50
2023-02-03T03:54:17.595Z,89.90
2023-02-03T03:56:50.705Z,90.00
2023-02-03T03:59:21.445Z,89.70
2023-02-03T04:01:50.877Z,90.00
2023-02-03T04:04:22.054Z,90.30
2023-02-03T04:06:50.177Z,90.50
2023-02-03T04:09:18.345Z,89.20
2023-02-03T04:12:06.099Z,89.40
2023-02-03T04:14:35.897Z,84.30
2023-02-03T04:17:04.067Z,89.20
2023-02-03T04:19:33.891Z,88.80
2023-02-03T04:22:02.047Z,88.80
2023-02-03T04:24:30.176Z,88.20
2023-02-03T04:26:58.235Z,88.60
2023-02-03T04:29:26.379Z,89.10
2023-02-03T04:31:54.588Z,88.20
2023-02-03T04:34:22.832Z,88.90
2023-02-03T04:36:52.417Z,88.20
2023-02-03T04:39:20.508Z,89.20
2023-02-03T04:41:48.609Z,88.70
2023-02-03T04:44:16.731Z,89.40
2023-02-03T04:46:44.923Z,89.70
2023-02-03T04:49:13.072Z,90.30
2023-02-03T04:51:43.064Z,90.40
2023-02-03T04:54:12.937Z,90.10
2023-02-03T04:56:41.187Z,90.60
2023-02-03T04:59:09.362Z,90.30
2023-02-03T05:01:37.528Z,91.10
2023-02-03T05:04:06.069Z,91.00
2023-02-03T05:06:35.122Z,90.70
2023-02-03T05:09:03.575Z,91.50
2023-02-03T05:11:33.112Z,91.60
2023-02-03T05:14:01.299Z,91.50
2023-02-03T05:16:29.468Z,92.00
2023-02-03T05:18:57.781Z,92.80
2023-02-03T05:21:25.893Z,92.70
2023-02-03T05:23:54.156Z,92.20
2023-02-03T05:26:22.355Z,92.40
2023-02-03T05:28:53.282Z,92.70
2023-02-03T05:31:22.192Z,92.40
2023-02-03T05:33:50.364Z,92.30
2023-02-03T05:36:18.456Z,92.60
2023-02-03T05:38:46.637Z,92.60
2023-02-03T05:41:32.362Z,92.80
2023-02-03T05:44:01.894Z,92.70
2023-02-03T05:46:29.956Z,93.40
2023-02-03T05:48:57.920Z,93.30
2023-02-03T05:51:26.127Z,93.50
2023-02-03T05:53:54.252Z,93.40
2023-02-03T05:56:22.376Z,93.90
2023-02-03T05:58:53.375Z,93.70
2023-02-03T06:01:23.201Z,93.40
2023-02-03T06:03:51.705Z,93.20
2023-02-03T06:06:20.097Z,93.30
2023-02-03T06:08:48.253Z,92.60
2023-02-03T06:11:16.394Z,92.20
2023-02-03T06:13:44.609Z,92.00
2023-02-03T06:16:12.725Z,91.20
2023-02-03T06:18:42.270Z,91.60
2023-02-03T06:21:10.459Z,91.10
2023-02-03T06:23:38.593Z,90.80
2023-02-03T06:26:06.945Z,90.10
2023-02-03T06:28:35.086Z,90.30
2023-02-03T06:31:03.319Z,90.70
2023-02-03T06:33:31.826Z,90.10
2023-02-03T06:36:01.660Z,90.00
2023-02-03T06:38:30.453Z,88.90
2023-02-03T06:40:58.438Z,86.50
2023-02-03T06:43:26.489Z,87.40
2023-02-03T06:45:54.606Z,87.70
2023-02-03T06:48:23.419Z,87.20
2023-02-03T06:50:51.450Z,87.20
2023-02-03T06:53:20.986Z,87.80
2023-02-03T06:55:49.383Z,85.70
2023-02-03T06:58:17.797Z,88.80
2023-02-03T07:00:46.076Z,89.60
2023-02-03T07:03:14.230Z,89.70
2023-02-03T07:05:42.418Z,88.00
2023-02-03T07:08:10.544Z,88.60
2023-02-03T07:10:40.058Z,88.70
2023-02-03T07:13:08.653Z,90.20
2023-02-03T07:15:37.114Z,89.30
2023-02-03T07:18:05.617Z,90.90
2023-02-03T07:20:33.826Z,91.20
2023-02-03T07:23:01.919Z,91.60
2023-02-03T07:25:30.104Z,92.00
2023-02-03T07:27:59.739Z,92.30
2023-02-03T07:30:28.167Z,91.60
2023-02-03T07:32:56.549Z,91.90
2023-02-03T07:35:25.532Z,91.50
2023-02-03T07:37:53.727Z,92.90
2023-02-03T07:40:22.163Z,92.10
2023-02-03T07:42:50.861Z,92.20
2023-02-03T07:45:22.104Z,92.10
2023-02-03T07:47:50.212Z,92.30
2023-02-03T07:50:19.132Z,92.00
2023-02-03T07:52:47.217Z,92.30
2023-02-03T07:55:15.338Z,93.20
2023-02-03T07:57:44.738Z,93.40
2023-02-03T08:00:14.434Z,92.60
2023-02-03T08:02:44.261Z,93.00
2023-02-03T08:05:13.790Z,93.30
2023-02-03T08:07:42.311Z,92.30
2023-02-03T08:10:13.900Z,93.00
2023-02-03T08:12:45.112Z,93.70
2023-02-03T08:15:13.899Z,93.00
2023-02-03T08:17:44.571Z,92.70
2023-02-03T08:20:13.777Z,93.20
2023-02-03T08:22:41.942Z,93.20
2023-02-03T08:25:10.588Z,93.70
2023-02-03T08:27:39.215Z,93.80
2023-02-03T08:30:08.336Z,92.30
2023-02-03T08:32:36.736Z,92.70
2023-02-03T08:35:07.209Z,92.60
2023-02-03T08:37:35.448Z,91.50
2023-02-03T08:40:03.658Z,91.70
2023-02-03T08:42:32.028Z,91.50
2023-02-03T08:45:00.450Z,92.20
2023-02-03T08:47:28.993Z,92.50
2023-02-03T08:49:57.208Z,93.10
2023-02-03T08:52:26.649Z,93.00
2023-02-03T08:54:54.821Z,93.40
2023-02-03T08:57:22.993Z,92.80
2023-02-03T08:59:51.346Z,93.30
2023-02-03T09:02:20.858Z,93.40
2023-02-03T09:04:50.359Z,93.40
2023-02-03T09:07:18.963Z,93.90
2023-02-03T09:09:48.635Z,93.60
2023-02-03T09:12:17.401Z,93.80
2023-02-03T09:14:45.509Z,93.30
2023-02-03T09:17:13.644Z,93.00
2023-02-03T09:19:41.845Z,93.30
2023-02-03T09:22:10.103Z,92.90
2023-02-03T09:24:38.372Z,93.60
2023-02-03T09:27:08.092Z,94.20
2023-02-03T09:29:36.338Z,93.90
2023-02-03T09:34:37.235Z,90.40
2023-02-03T09:37:05.495Z,92.70
2023-02-03T09:39:33.603Z,94.00
2023-02-03T09:42:38.125Z,92.50
2023-02-03T09:45:19.530Z,92.90
2023-02-03T09:47:54.116Z,91.90
2023-02-03T09:50:25.231Z,92.70
2023-02-03T09:52:54.317Z,90.20
2023-02-03T09:55:31.513Z,91.30
2023-02-03T09:58:06.680Z,90.50
2023-02-03T10:00:39.103Z,90.10
2023-02-03T10:03:14.054Z,91.40
2023-02-03T10:06:00.484Z,90.00
2023-02-03T10:08:44.577Z,89.90
2023-02-03T10:11:21.153Z,87.30
2023-02-03T10:13:59.477Z,91.50
2023-02-03T10:17:00.283Z,88.40
2023-02-03T10:19:33.162Z,90.30
2023-02-03T10:22:03.206Z,89.10
2023-02-03T10:24:42.069Z,90.20
2023-02-03T10:27:19.158Z,90.20
2023-02-03T10:29:54.895Z,89.70
2023-02-03T10:32:25.335Z,89.60
2023-02-03T10:34:53.494Z,87.70
2023-02-03T10:37:30.033Z,89.50
2023-02-03T10:40:00.714Z,88.50
2023-02-03T10:42:51.244Z,86.80
2023-02-03T10:45:22.227Z,90.20
2023-02-03T10:47:54.904Z,87.20
2023-02-03T10:50:31.791Z,86.90
2023-02-03T10:53:26.431Z,89.40
2023-02-03T10:58:33.673Z,88.10
2023-02-03T11:01:10.932Z,89.10
2023-02-03T11:03:41.007Z,87.80
2023-02-03T11:06:12.699Z,87.20
2023-02-03T11:08:43.496Z,87.50
2023-02-03T11:11:16.058Z,90.40
2023-02-03T11:13:44.531Z,88.30
2023-02-03T11:16:17.683Z,90.70
2023-02-03T11:18:52.351Z,83.60
2023-02-03T11:21:22.677Z,83.60
2023-02-03T11:23:57.337Z,81.10
2023-02-03T11:26:30.005Z,83.90
2023-02-03T11:29:00.988Z,82.60
2023-02-03T11:31:33.210Z,79.10
2023-02-03T11:34:04.494Z,78.80
2023-02-03T11:36:34.990Z,77.80
2023-02-03T11:39:28.634Z,80.60
2023-02-03T11:41:57.582Z,81.10
2023-02-03T11:44:29.591Z,80.50
2023-02-03T11:47:02.562Z,81.00
2023-02-03T11:50:07.431Z,79.50
2023-02-03T11:52:51.535Z,76.50
2023-02-03T11:55:34.841Z,75.50
2023-02-03T11:58:24.298Z,77.20
2023-02-03T12:01:02.939Z,78.60
2023-02-03T12:03:57.500Z,79.10
2023-02-03T12:07:06.408Z,77.80
2023-02-03T12:09:47.376Z,73.30
2023-02-03T12:12:32.382Z,71.50
2023-02-03T12:15:15.298Z,77.50
2023-02-03T12:17:59.558Z,78.00
2023-02-03T12:20:42.187Z,77.10
2023-02-03T12:23:23.946Z,79.10
2023-02-03T12:26:07.046Z,78.60
2023-02-03T12:28:51.758Z,77.90
2023-02-03T12:31:33.385Z,79.30
2023-02-03T12:36:41.611Z,70.30
2023-02-03T12:39:17.059Z,76.30
2023-02-03T12:41:52.038Z,76.30
2023-02-03T12:44:25.227Z,73.80
2023-02-03T12:47:01.707Z,73.60
2023-02-03T12:49:38.031Z,74.50
2023-02-03T12:52:16.631Z,72.50
2023-02-03T12:54:51.077Z,72.90
2023-02-03T12:57:28.185Z,73.20
2023-02-03T13:00:05.806Z,74.00
2023-02-03T13:02:43.022Z,73.60
2023-02-03T13:05:21.272Z,74.50
2023-02-03T13:07:55.300Z,73.50
2023-02-03T13:10:30.191Z,73.40
2023-02-03T13:13:00.197Z,74.50
2023-02-03T13:15:32.675Z,74.00
2023-02-03T13:18:06.430Z,73.80
2023-02-03T13:20:37.210Z,75.20
2023-02-03T13:23:10.628Z,73.90
2023-02-03T13:25:51.285Z,72.20
2023-02-03T13:28:30.503Z,72.80
2023-02-03T13:31:16.329Z,71.90
2023-02-03T13:34:13.019Z,70.10
2023-02-03T13:37:23.723Z,72.30
2023-02-03T13:40:11.789Z,67.40
2023-02-03T13:42:46.082Z,71.30
2023-02-03T13:45:23.755Z,72.60
2023-02-03T13:47:53.981Z,70.70
2023-02-03T13:50:25.402Z,70.20
2023-02-03T13:53:02.864Z,69.60
2023-02-03T13:55:38.262Z,71.10
2023-02-03T13:58:09.254Z,70.40
2023-02-03T14:01:01.316Z,69.60
2023-02-03T14:03:48.836Z,66.30
2023-02-03T14:07:00.135Z,70.30
2023-02-03T14:09:47.075Z,67.70
2023-02-03T14:12:33.945Z,66.20
2023-02-03T14:15:17.590Z,71.10
2023-02-03T14:18:06.754Z,71.00
2023-02-03T14:20:55.355Z,71.10
2023-02-03T14:23:28.235Z,70.20
2023-02-03T14:25:58.612Z,70.50
2023-02-03T14:28:38.958Z,70.60
2023-02-03T14:31:20.189Z,69.70
2023-02-03T14:34:06.355Z,70.00
2023-02-03T14:36:52.973Z,67.60
2023-02-03T14:40:07.421Z,70.50
2023-02-03T14:43:14.527Z,66.30
2023-02-03T14:46:17.024Z,65.60
2023-02-03T14:49:08.763Z,67.00
2023-02-03T14:51:51.707Z,69.50
2023-02-03T14:54:36.108Z,72.00
2023-02-03T14:57:19.821Z,72.60
2023-02-03T14:59:51.771Z,71.90
2023-02-03T15:02:25.806Z,71.60
2023-02-03T15:05:14.555Z,71.70
2023-02-03T15:07:46.298Z,73.50
2023-02-03T15:10:16.567Z,73.40
2023-02-03T15:12:49.981Z,73.80
2023-02-03T15:15:24.067Z,73.80
2023-02-03T15:17:55.398Z,74.90
2023-02-03T15:20:34.947Z,75.60
2023-02-03T15:23:03.437Z,76.50
2023-02-03T15:25:33.227Z,77.30
2023-02-03T15:28:17.028Z,78.90
2023-02-03T15:30:46.227Z,81.10
2023-02-03T15:33:21.352Z,82.30
2023-02-03T15:35:51.531Z,82.20
2023-02-03T15:38:25.629Z,86.10
2023-02-03T15:40:57.949Z,84.70
2023-02-03T15:43:32.516Z,84.40
2023-02-03T15:46:07.627Z,84.20
2023-02-03T15:48:44.342Z,85.70
2023-02-03T15:51:18.342Z,82.90
2023-02-03T15:53:52.917Z,84.00
2023-02-03T15:56:27.395Z,84.20
2023-02-03T15:58:58.789Z,84.20
2023-02-03T16:01:28.255Z,83.10
2023-02-03T16:03:58.887Z,84.20
2023-02-03T17:53:32.711Z,98.30
2023-02-03T17:56:07.863Z,99.10
2023-02-03T17:58:37.719Z,99.70
2023-02-03T18:01:15.910Z,99.60
2023-02-03T18:03:45.044Z,99.90
2023-02-03T18:06:14.081Z,99.90
2023-02-03T18:08:43.216Z,99.90
2023-02-03T18:11:12.659Z,99.90
2023-02-03T18:13:44.151Z,99.90
2023-02-03T18:16:15.388Z,99.90
2023-02-03T18:18:45.533Z,99.90
2023-02-03T18:21:16.010Z,99.90
2023-02-03T18:23:44.419Z,99.90
2023-02-03T18:26:14.118Z,99.90
2023-02-03T18:28:43.498Z,99.90
2023-02-03T18:31:15.201Z,99.90
2023-02-03T18:33:45.473Z,99.90
2023-02-03T18:36:14.527Z,99.90
2023-02-03T18:38:44.988Z,99.90
2023-02-03T18:41:16.779Z,99.90
2023-02-03T18:43:49.090Z,99.90
2023-02-03T18:46:20.556Z,99.90
2023-02-03T18:48:49.012Z,99.90
2023-02-03T18:51:18.982Z,99.90
2023-02-03T18:53:49.132Z,99.90
2023-02-03T18:56:19.375Z,99.90
2023-02-03T18:58:49.236Z,99.90
2023-02-03T19:01:22.900Z,99.90
2023-02-03T19:03:51.136Z,99.90
2023-02-03T19:06:19.874Z,99.90
2023-02-03T19:08:48.019Z,99.90
2023-02-03T19:11:16.222Z,99.90
2023-02-03T19:13:44.596Z,99.90
2023-02-03T19:16:16.825Z,99.90
2023-02-03T19:18:45.392Z,99.90
2023-02-03T19:21:14.319Z,99.90
2023-02-03T19:23:43.284Z,99.90
2023-02-03T19:26:13.074Z,99.90
2023-02-03T19:28:42.244Z,99.90
2023-02-03T19:31:14.090Z,99.90
2023-02-03T19:33:46.216Z,99.90
2023-02-03T19:36:14.473Z,99.90
2023-02-03T19:38:42.598Z,99.90
2023-02-03T19:41:11.773Z,99.90
2023-02-03T19:43:40.513Z,99.90
2023-02-03T19:46:09.100Z,99.90
2023-02-03T19:48:37.511Z,99.90
2023-02-03T19:51:08.103Z,99.90
2023-02-03T19:53:36.599Z,99.90
2023-02-03T19:56:05.586Z,99.90
2023-02-03T19:58:33.651Z,99.90
2023-02-03T20:01:01.803Z,99.90
2023-02-03T20:03:30.095Z,99.90
2023-02-03T20:05:58.748Z,99.90
2023-02-03T20:08:28.845Z,99.90
2023-02-03T20:10:56.998Z,99.90
2023-02-03T20:13:25.183Z,99.90
2023-02-03T20:15:53.292Z,99.90
2023-02-03T20:18:21.612Z,99.90
2023-02-03T20:20:51.754Z,99.90
2023-02-03T20:23:19.938Z,99.90
2023-02-03T20:25:52.804Z,99.90
2023-02-03T20:28:21.406Z,99.90
2023-02-03T20:30:52.569Z,99.90
2023-02-03T20:33:20.791Z,99.90
2023-02-03T20:35:48.837Z,99.90
2023-02-03T20:38:17.092Z,99.90
2023-02-03T20:40:45.978Z,99.90
2023-02-03T20:43:18.317Z,99.90
2023-02-03T20:45:46.837Z,99.90
2023-02-03T20:48:15.938Z,99.90
2023-02-03T20:50:47.229Z,99.90
2023-02-03T20:53:17.705Z,99.90
2023-02-03T20:55:45.984Z,99.90
2023-02-03T20:58:19.183Z,99.90
2023-02-03T21:00:48.386Z,99.90
2023-02-03T21:03:35.601Z,99.90
2023-02-03T21:06:05.590Z,99.90
2023-02-03T21:08:34.366Z,99.90
2023-02-03T21:11:02.490Z,99.90
2023-02-03T21:13:35.847Z,99.90
2023-02-03T21:16:13.591Z,99.90
2023-02-03T21:18:47.889Z,99.90
2023-02-03T21:21:19.960Z,99.90
2023-02-03T21:23:48.248Z,99.90
2023-02-03T21:26:21.542Z,99.90
2023-02-03T21:28:53.695Z,99.90
2023-02-03T21:33:54.216Z,99.90
2023-02-03T21:36:24.377Z,99.90
2023-02-03T21:38:54.802Z,99.90
2023-02-03T21:41:25.329Z,99.90
2023-02-03T21:43:56.930Z,99.90
2023-02-03T21:46:26.872Z,99.90
2023-02-03T21:48:56.199Z,99.90
2023-02-03T21:51:26.665Z,99.90
2023-02-03T21:53:56.539Z,99.90
2023-02-03T21:56:26.676Z,99.90
2023-02-03T21:58:59.035Z,99.90
2023-02-03T22:01:30.646Z,99.90
2023-02-03T22:04:00.613Z,99.90
2023-02-03T22:06:30.198Z,99.90
2023-02-03T22:08:59.631Z,99.90
2023-02-03T22:11:29.751Z,99.90
2023-02-03T22:13:59.184Z,99.90
2023-02-03T22:16:29.099Z,99.90
2023-02-03T22:18:57.616Z,99.90
2023-02-03T22:21:26.160Z,99.90
2023-02-03T22:23:54.492Z,99.90
2023-02-03T22:26:23.276Z,99.90
2023-02-03T22:28:51.526Z,99.90
2023-02-03T22:31:21.470Z,99.90
2023-02-03T22:33:50.153Z,99.90
2023-02-03T22:36:18.250Z,99.90
2023-02-03T22:38:46.356Z,99.90
2023-02-03T22:41:14.441Z,99.90
2023-02-03T22:43:42.728Z,99.90
2023-02-03T22:46:10.839Z,99.90
2023-02-03T22:48:40.596Z,99.90
2023-02-03T22:51:08.735Z,99.90
2023-02-03T22:53:36.889Z,99.90
2023-02-03T22:56:05.355Z,99.90
2023-02-03T22:58:33.497Z,99.90
2023-02-03T23:01:01.629Z,99.90
2023-02-03T23:03:32.635Z,99.90
2023-02-03T23:06:02.309Z,99.90
2023-02-03T23:08:30.447Z,99.90
2023-02-03T23:10:58.804Z,99.90
2023-02-03T23:13:27.074Z,99.90
2023-02-03T23:15:55.344Z,99.90
2023-02-03T23:18:23.546Z,99.90
2023-02-03T23:20:51.731Z,99.90
2023-02-03T23:23:21.225Z,99.90
2023-02-03T23:25:49.312Z,99.90
2023-02-03T23:28:17.546Z,99.90
2023-02-03T23:30:45.763Z,99.90
2023-02-03T23:33:13.922Z,99.90
2023-02-03T23:35:46.986Z,99.90
2023-02-03T23:38:15.991Z,99.90
2023-02-03T23:40:45.513Z,99.90
2023-02-03T23:43:13.815Z,99.90
2023-02-03T23:45:42.334Z,99.90
2023-02-03T23:48:10.537Z,99.90
2023-02-03T23:50:38.701Z,99.90
2023-02-03T23:53:06.826Z,99.90
2023-02-03T23:55:36.336Z,99.90
2023-02-03T23:58:06.117Z,99.90
